Ouddorp, Netherlands
Current Conditions -  °F | °C
As of 12:25 PM on Sunday 21 Dec 2014 (Local Time) from EHRD Reporting Station
Overcast Overcast  
Wind Chill: 42°   Ceiling: 3700
Heat Index: 48°   Visibility: 6mi
Dew Point: 43°   Wind: 18mph
Humidity: 82%   Direction: 240°WSW
Pressure: 30.3"   Gusts: 32mph
Location:  51.81°N, 3.93°E
Report Text: EHRD 211125Z AUTO 24016G28KT 210V270 9999 FEW016 BKN037 OVC04109/06 Q1026 NOSIG
Loading
Personal Weather Stations






























Interactive Weather Map New forecast layout! Learn more

10-Day Weather Forecast

Advertisements
Track Severe Weather on mobile